createdAt,value
2023-01-08T00:02:17.371Z,80.15
2023-01-08T00:04:50.624Z,79.88
2023-01-08T00:07:23.864Z,80.35
2023-01-08T00:09:58.595Z,80.43
2023-01-08T00:12:32.631Z,79.84
2023-01-08T00:15:08.011Z,80.01
2023-01-08T00:17:41.626Z,80.90
2023-01-08T00:20:14.903Z,81.03
2023-01-08T00:22:49.791Z,79.93
2023-01-08T00:25:24.817Z,79.89
2023-01-08T00:27:58.017Z,79.79
2023-01-08T00:30:31.349Z,80.14
2023-01-08T00:33:05.164Z,79.52
2023-01-08T00:35:38.765Z,80.24
2023-01-08T00:38:11.898Z,80.96
2023-01-08T00:40:46.884Z,80.62
2023-01-08T00:43:20.271Z,80.60
2023-01-08T00:45:54.044Z,80.58
2023-01-08T00:48:27.079Z,81.15
2023-01-08T00:51:03.384Z,80.36
2023-01-08T00:53:38.108Z,80.32
2023-01-08T00:56:13.376Z,80.11
2023-01-08T00:58:47.099Z,80.33
2023-01-08T01:01:20.470Z,79.86
2023-01-08T01:03:53.768Z,79.71
2023-01-08T01:06:27.016Z,79.37
2023-01-08T01:09:00.469Z,80.26
2023-01-08T01:11:35.765Z,80.85
2023-01-08T01:14:10.816Z,80.78
2023-01-08T01:16:44.749Z,79.33
2023-01-08T01:19:18.632Z,80.49
2023-01-08T01:21:52.053Z,81.03
2023-01-08T01:24:26.311Z,80.47
2023-01-08T01:27:01.327Z,79.82
2023-01-08T01:29:34.689Z,79.89
2023-01-08T01:32:08.341Z,79.47
2023-01-08T01:34:41.548Z,79.15
2023-01-08T01:37:15.339Z,80.15
2023-01-08T01:39:48.557Z,80.61
2023-01-08T01:42:41.549Z,81.17
2023-01-08T01:45:18.025Z,81.04
2023-01-08T01:47:55.779Z,81.04
2023-01-08T01:50:31.734Z,81.68
2023-01-08T01:53:10.164Z,80.70
2023-01-08T01:55:45.077Z,80.73
2023-01-08T01:58:23.966Z,81.12
2023-01-08T02:00:59.949Z,81.41
2023-01-08T02:03:37.816Z,81.49
2023-01-08T02:06:21.267Z,81.46
2023-01-08T02:09:02.545Z,81.48
2023-01-08T02:11:43.772Z,81.64
2023-01-08T02:14:24.104Z,81.53
2023-01-08T02:17:03.802Z,81.93
2023-01-08T02:19:44.008Z,81.76
2023-01-08T02:22:33.874Z,81.38
2023-01-08T02:25:13.859Z,81.55
2023-01-08T02:27:52.319Z,82.48
2023-01-08T02:30:26.448Z,81.62
2023-01-08T02:33:00.262Z,82.54
2023-01-08T02:35:41.330Z,82.84
2023-01-08T02:38:17.799Z,82.89
2023-01-08T02:40:58.365Z,82.63
2023-01-08T02:43:42.387Z,82.87
2023-01-08T02:46:24.717Z,83.13
2023-01-08T02:49:03.912Z,82.53
2023-01-08T02:51:42.271Z,81.81
2023-01-08T02:54:19.311Z,81.02
2023-01-08T02:56:58.316Z,81.31
2023-01-08T02:59:33.853Z,81.52
2023-01-08T03:02:09.075Z,82.06
2023-01-08T03:04:53.288Z,82.44
2023-01-08T03:07:26.457Z,82.11
2023-01-08T03:10:00.679Z,82.47
2023-01-08T03:12:46.364Z,81.52
2023-01-08T03:15:26.759Z,81.83
2023-01-08T03:18:05.859Z,82.02
2023-01-08T03:20:40.348Z,82.19
2023-01-08T03:23:15.953Z,82.44
2023-01-08T03:25:49.528Z,82.20
2023-01-08T03:28:30.257Z,81.37
2023-01-08T03:31:07.436Z,81.55
2023-01-08T03:33:41.583Z,81.24
2023-01-08T03:36:17.889Z,82.30
2023-01-08T03:38:55.572Z,82.16
2023-01-08T03:41:32.481Z,81.57
2023-01-08T03:44:06.320Z,81.32
2023-01-08T03:46:48.363Z,81.36
2023-01-08T03:49:24.102Z,82.53
2023-01-08T03:51:57.843Z,82.79
2023-01-08T03:54:33.784Z,83.11
2023-01-08T03:57:06.942Z,84.12
2023-01-08T03:59:40.248Z,83.42
2023-01-08T04:02:15.265Z,83.87
2023-01-08T04:04:48.951Z,83.18
2023-01-08T04:07:22.898Z,82.55
2023-01-08T04:09:56.128Z,83.00
2023-01-08T04:12:30.210Z,82.59
2023-01-08T04:15:03.688Z,84.04
2023-01-08T04:17:38.395Z,83.71
2023-01-08T04:20:12.398Z,83.28
2023-01-08T04:22:46.260Z,83.73
2023-01-08T04:25:19.869Z,84.19
2023-01-08T04:27:53.063Z,83.65
2023-01-08T04:30:26.287Z,82.78
2023-01-08T04:33:01.004Z,83.88
2023-01-08T04:35:34.239Z,82.43
2023-01-08T04:38:07.625Z,81.54
2023-01-08T04:40:41.303Z,82.43
2023-01-08T04:43:14.726Z,81.11
2023-01-08T04:45:47.991Z,80.63
2023-01-08T04:48:22.573Z,81.96
2023-01-08T04:50:55.919Z,81.95
2023-01-08T04:53:30.211Z,80.50
2023-01-08T04:56:07.942Z,80.80
2023-01-08T04:58:41.638Z,81.32
2023-01-08T05:01:20.149Z,81.72
2023-01-08T05:03:56.508Z,82.30
2023-01-08T05:06:31.447Z,82.64
2023-01-08T05:09:05.097Z,81.98
2023-01-08T05:11:38.399Z,83.01
2023-01-08T05:14:12.390Z,83.14
2023-01-08T05:16:45.919Z,82.08
2023-01-08T05:19:20.522Z,82.52
2023-01-08T05:21:54.231Z,81.34
2023-01-08T05:24:28.624Z,81.55
2023-01-08T05:27:02.080Z,81.92
2023-01-08T05:29:35.716Z,81.51
2023-01-08T05:32:16.238Z,81.95
2023-01-08T05:34:51.628Z,82.92
2023-01-08T05:37:24.958Z,83.11
2023-01-08T05:39:59.057Z,81.92
2023-01-08T05:42:34.671Z,83.35
2023-01-08T05:45:09.688Z,83.14
2023-01-08T05:47:43.018Z,82.00
2023-01-08T05:50:18.006Z,81.84
2023-01-08T05:52:51.344Z,83.27
2023-01-08T05:55:24.587Z,82.65
2023-01-08T05:58:01.571Z,83.17
2023-01-08T06:00:35.957Z,83.85
2023-01-08T06:03:09.422Z,82.51
2023-01-08T06:05:44.348Z,83.38
2023-01-08T06:08:17.620Z,82.83
2023-01-08T06:10:50.884Z,81.77
2023-01-08T06:13:24.054Z,82.08
2023-01-08T06:16:00.595Z,82.56
2023-01-08T06:18:34.034Z,81.76
2023-01-08T06:21:08.723Z,81.30
2023-01-08T06:23:41.881Z,82.11
2023-01-08T06:26:15.468Z,80.46
2023-01-08T06:28:48.805Z,80.29
2023-01-08T06:31:22.037Z,80.54
2023-01-08T06:33:55.251Z,80.52
2023-01-08T06:36:29.935Z,81.24
2023-01-08T06:39:03.347Z,81.16
2023-01-08T06:41:36.740Z,79.88
2023-01-08T06:44:10.032Z,80.61
2023-01-08T06:46:43.428Z,80.78
2023-01-08T06:49:18.077Z,80.74
2023-01-08T06:51:52.676Z,81.03
2023-01-08T06:54:25.909Z,81.41
2023-01-08T06:57:00.048Z,81.31
2023-01-08T06:59:33.391Z,80.42
2023-01-08T07:02:07.036Z,81.52
2023-01-08T07:04:40.538Z,81.21
2023-01-08T07:07:16.521Z,81.49
2023-01-08T07:09:49.789Z,81.52
2023-01-08T07:12:24.102Z,80.95
2023-01-08T07:14:58.390Z,79.85
2023-01-08T07:17:33.663Z,80.76
2023-01-08T07:20:09.690Z,80.64
2023-01-08T07:22:44.315Z,80.97
2023-01-08T07:25:17.862Z,79.92
2023-01-08T07:27:51.878Z,79.59
2023-01-08T07:30:30.263Z,79.83
2023-01-08T07:33:04.277Z,80.10
2023-01-08T07:35:39.051Z,79.40
2023-01-08T07:38:13.674Z,78.89
2023-01-08T07:40:47.131Z,78.83
2023-01-08T07:43:20.639Z,78.25
2023-01-08T07:45:53.818Z,78.01
2023-01-08T07:48:27.029Z,78.74
2023-01-08T07:51:03.315Z,79.40
2023-01-08T07:53:38.774Z,78.41
2023-01-08T07:56:12.582Z,78.14
2023-01-08T07:58:47.358Z,78.27
2023-01-08T08:01:21.080Z,78.41
2023-01-08T08:03:54.453Z,77.44
2023-01-08T08:06:27.712Z,77.58
2023-01-08T08:09:03.926Z,76.62
2023-01-08T08:11:38.525Z,76.27
2023-01-08T08:14:12.538Z,76.51
2023-01-08T08:16:46.117Z,75.76
2023-01-08T08:19:19.193Z,75.56
2023-01-08T08:21:52.676Z,75.47
2023-01-08T08:24:27.252Z,75.23
2023-01-08T08:27:00.545Z,75.51
2023-01-08T08:29:34.461Z,75.08
2023-01-08T08:32:07.983Z,75.52
2023-01-08T08:34:41.293Z,75.30
2023-01-08T08:37:14.737Z,75.13
2023-01-08T08:39:49.420Z,74.51
2023-01-08T08:42:22.704Z,75.04
2023-01-08T08:44:55.973Z,74.77
2023-01-08T08:47:29.437Z,74.68
2023-01-08T08:50:03.283Z,74.39
2023-01-08T08:52:37.639Z,74.52
2023-01-08T08:55:15.204Z,74.79
2023-01-08T08:57:49.380Z,74.48
2023-01-08T09:00:23.499Z,74.49
2023-01-08T09:02:56.982Z,73.99
2023-01-08T09:05:30.569Z,74.14
2023-01-08T09:08:04.115Z,73.83
2023-01-08T09:10:41.548Z,73.73
2023-01-08T09:13:15.223Z,73.79
2023-01-08T09:15:49.006Z,72.97
2023-01-08T09:18:22.556Z,73.36
2023-01-08T09:20:56.095Z,72.77
2023-01-08T09:23:29.478Z,72.96
2023-01-08T09:26:05.700Z,73.52
2023-01-08T09:28:39.234Z,73.05
2023-01-08T09:31:12.746Z,72.12
2023-01-08T09:33:48.318Z,72.41
2023-01-08T09:36:21.826Z,72.95
2023-01-08T09:38:55.222Z,73.00
2023-01-08T09:41:34.068Z,72.74
2023-01-08T09:44:08.384Z,72.27
2023-01-08T09:46:42.765Z,72.71
2023-01-08T09:49:22.622Z,72.73
2023-01-08T09:51:56.571Z,72.46
2023-01-08T09:54:29.748Z,72.01
2023-01-08T09:57:04.854Z,72.82
2023-01-08T09:59:39.358Z,72.35
2023-01-08T10:02:15.603Z,71.64
2023-01-08T10:04:55.541Z,72.35
2023-01-08T10:07:31.297Z,71.33
2023-01-08T10:10:04.932Z,71.02
2023-01-08T10:12:40.973Z,70.91
2023-01-08T10:15:17.296Z,71.29
2023-01-08T10:17:59.018Z,70.94
2023-01-08T10:20:33.966Z,71.60
2023-01-08T10:23:11.925Z,70.67
2023-01-08T10:25:52.375Z,71.29
2023-01-08T10:28:28.694Z,70.95
2023-01-08T10:31:17.637Z,71.07
2023-01-08T10:33:51.809Z,71.61
2023-01-08T10:36:27.654Z,70.46
2023-01-08T10:39:03.288Z,69.93
2023-01-08T10:41:40.719Z,69.99
2023-01-08T10:44:19.079Z,69.90
2023-01-08T10:46:57.000Z,69.19
2023-01-08T10:49:35.183Z,69.15
2023-01-08T10:52:24.910Z,69.20
2023-01-08T10:54:59.632Z,70.11
2023-01-08T10:57:34.487Z,69.07
2023-01-08T11:00:27.427Z,69.99
2023-01-08T11:03:02.982Z,69.18
2023-01-08T11:05:38.638Z,68.69
2023-01-08T11:08:17.937Z,68.65
2023-01-08T11:10:56.152Z,68.27
2023-01-08T11:13:31.058Z,68.85
2023-01-08T11:16:08.454Z,68.05
2023-01-08T11:18:47.180Z,68.09
2023-01-08T11:21:24.862Z,68.55
2023-01-08T11:24:16.460Z,68.75
2023-01-08T11:26:54.396Z,67.50
2023-01-08T11:29:37.393Z,68.59
2023-01-08T11:32:28.114Z,68.39
2023-01-08T11:35:11.113Z,68.17
2023-01-08T11:37:51.484Z,68.05
2023-01-08T11:40:39.228Z,68.14
2023-01-08T11:43:26.348Z,68.57
2023-01-08T11:46:26.313Z,68.61
2023-01-08T11:49:39.447Z,67.56
2023-01-08T11:52:28.519Z,68.26
2023-01-08T11:55:16.863Z,67.56
2023-01-08T11:58:02.409Z,67.94
2023-01-08T12:01:14.473Z,67.53
2023-01-08T12:03:52.741Z,67.83
2023-01-08T12:06:37.799Z,66.72
2023-01-08T12:09:17.820Z,67.76
2023-01-08T12:11:57.433Z,67.18
2023-01-08T12:14:47.193Z,68.11
2023-01-08T12:17:46.479Z,67.93
2023-01-08T12:20:29.657Z,67.49
2023-01-08T12:23:16.174Z,66.88
2023-01-08T12:26:00.562Z,66.98
2023-01-08T12:28:55.107Z,67.08
2023-01-08T12:32:02.994Z,67.51
2023-01-08T12:34:48.947Z,68.29
2023-01-08T12:37:28.595Z,68.14
2023-01-08T12:40:13.257Z,68.59
2023-01-08T12:42:59.920Z,67.92
2023-01-08T12:45:38.735Z,69.00
2023-01-08T12:48:16.715Z,68.62
2023-01-08T12:51:00.588Z,67.19
2023-01-08T12:53:44.821Z,68.29
2023-01-08T12:56:31.982Z,67.89
2023-01-08T12:59:19.967Z,67.99
2023-01-08T13:01:59.895Z,68.04
2023-01-08T13:04:41.689Z,68.32
2023-01-08T13:07:21.569Z,68.45
2023-01-08T13:09:57.233Z,67.97
2023-01-08T13:12:37.386Z,68.54
2023-01-08T13:15:21.710Z,68.25
2023-01-08T13:17:58.276Z,68.30
2023-01-08T13:20:33.280Z,68.85
2023-01-08T13:23:07.151Z,68.13
2023-01-08T13:25:40.602Z,69.21
2023-01-08T13:28:29.479Z,69.08
2023-01-08T13:31:11.020Z,69.45
2023-01-08T13:33:47.166Z,68.86
2023-01-08T13:36:23.221Z,69.29
2023-01-08T13:39:23.289Z,69.66
2023-01-08T13:42:03.560Z,69.41
2023-01-08T13:44:42.583Z,68.99
2023-01-08T13:47:23.447Z,69.81
2023-01-08T13:49:58.028Z,69.57
2023-01-08T13:52:40.407Z,70.44
2023-01-08T13:55:17.932Z,70.52
2023-01-08T13:57:57.154Z,70.97
2023-01-08T14:00:44.765Z,70.90
2023-01-08T14:03:26.422Z,70.95
2023-01-08T14:06:16.494Z,71.21
2023-01-08T14:08:54.348Z,71.22
2023-01-08T14:11:31.963Z,71.79
2023-01-08T14:14:06.469Z,72.28
2023-01-08T14:16:42.669Z,72.08
2023-01-08T14:19:18.939Z,72.55
2023-01-08T14:21:54.792Z,72.42
2023-01-08T14:24:28.827Z,72.21
2023-01-08T14:27:02.491Z,72.55
2023-01-08T14:29:36.644Z,72.72
2023-01-08T14:32:18.149Z,72.69
2023-01-08T14:34:53.173Z,73.28
2023-01-08T14:37:26.738Z,74.21
2023-01-08T14:40:00.745Z,73.89
2023-01-08T14:42:44.386Z,73.82
2023-01-08T14:45:21.424Z,74.25
2023-01-08T14:47:59.864Z,74.35
2023-01-08T14:50:36.731Z,74.58
2023-01-08T14:53:20.586Z,74.16
2023-01-08T14:56:05.892Z,75.22
2023-01-08T14:58:42.684Z,74.83
2023-01-08T15:01:18.090Z,75.82
2023-01-08T15:04:04.821Z,75.27
2023-01-08T15:06:38.232Z,75.16
2023-01-08T15:09:22.632Z,75.33
2023-01-08T15:12:00.904Z,76.52
2023-01-08T15:14:37.348Z,76.48
2023-01-08T15:17:17.051Z,75.83
2023-01-08T15:19:54.593Z,76.82
2023-01-08T15:22:32.873Z,76.75
2023-01-08T15:25:08.733Z,76.87
2023-01-08T15:27:43.058Z,77.37
2023-01-08T15:30:27.484Z,76.92
2023-01-08T15:33:09.725Z,77.06
2023-01-08T15:35:44.636Z,77.63
2023-01-08T15:38:20.795Z,77.87
2023-01-08T15:40:55.991Z,77.94
2023-01-08T15:43:28.531Z,78.46
2023-01-08T15:46:02.138Z,78.43
2023-01-08T15:48:35.776Z,78.34
2023-01-08T15:51:11.481Z,78.67
2023-01-08T15:53:44.929Z,79.28
2023-01-08T15:56:18.394Z,79.48
2023-01-08T15:58:52.964Z,78.48
2023-01-08T16:01:28.869Z,78.82
2023-01-08T16:04:02.777Z,79.46
2023-01-08T16:06:37.378Z,79.68
2023-01-08T16:09:10.714Z,80.01
2023-01-08T16:11:44.715Z,79.93
2023-01-08T16:14:18.279Z,79.68
2023-01-08T16:16:52.482Z,80.19
2023-01-08T16:19:27.725Z,80.79
2023-01-08T16:22:02.374Z,80.92
2023-01-08T16:24:35.909Z,80.67
2023-01-08T16:27:10.008Z,80.71
2023-01-08T16:29:43.298Z,81.12
2023-01-08T16:32:16.837Z,81.36
2023-01-08T16:34:50.809Z,81.63
2023-01-08T16:37:25.794Z,81.55
2023-01-08T16:40:00.315Z,81.45
2023-01-08T16:42:34.119Z,81.36
2023-01-08T16:45:09.194Z,81.38
2023-01-08T16:47:42.755Z,82.11
2023-01-08T16:50:16.520Z,82.31
2023-01-08T16:52:51.503Z,82.75
2023-01-08T16:55:24.790Z,82.98
2023-01-08T16:57:58.023Z,83.01
2023-01-08T17:00:31.425Z,83.17
2023-01-08T17:03:06.013Z,83.17
2023-01-08T17:05:39.546Z,83.19
2023-01-08T17:08:16.395Z,82.87
2023-01-08T17:10:49.920Z,82.31
2023-01-08T17:13:23.619Z,82.39
2023-01-08T17:15:59.761Z,81.97
2023-01-08T17:18:36.419Z,81.94
2023-01-08T17:21:12.342Z,81.08
2023-01-08T17:23:47.719Z,81.24
2023-01-08T17:26:21.163Z,81.19
2023-01-08T17:28:55.597Z,80.92
2023-01-08T17:31:28.950Z,81.07
2023-01-08T17:34:03.217Z,80.81
2023-01-08T17:36:47.983Z,81.10
2023-01-08T17:39:22.742Z,80.48
2023-01-08T17:42:13.639Z,80.73
2023-01-08T17:44:47.183Z,80.91
2023-01-08T17:47:20.999Z,80.88
2023-01-08T17:49:54.476Z,80.85
2023-01-08T17:52:27.889Z,81.29
2023-01-08T17:55:03.175Z,81.11
2023-01-08T17:57:36.891Z,80.90
2023-01-08T18:00:11.598Z,81.32
2023-01-08T18:02:45.528Z,81.18
2023-01-08T18:05:19.250Z,81.50
2023-01-08T18:07:52.709Z,81.57
2023-01-08T18:10:27.547Z,81.21
2023-01-08T18:13:01.503Z,81.57
2023-01-08T18:15:38.548Z,81.11
2023-01-08T18:18:11.902Z,81.33
2023-01-08T18:20:45.255Z,81.25
2023-01-08T18:23:18.575Z,81.76
2023-01-08T18:26:05.136Z,82.03
2023-01-08T18:28:38.324Z,82.08
2023-01-08T18:31:12.855Z,81.97
2023-01-08T18:33:46.207Z,81.91
2023-01-08T18:36:20.605Z,81.79
2023-01-08T18:38:55.822Z,81.84
2023-01-08T18:41:47.967Z,81.91
2023-01-08T18:44:21.821Z,82.11
2023-01-08T18:46:56.026Z,81.63
2023-01-08T18:49:29.499Z,81.47
2023-01-08T18:52:02.661Z,81.58
2023-01-08T18:54:35.951Z,81.77
2023-01-08T18:57:11.027Z,81.66
2023-01-08T18:59:44.337Z,83.15
2023-01-08T19:02:21.370Z,82.30
2023-01-08T19:04:54.888Z,82.65
2023-01-08T19:07:28.435Z,82.73
2023-01-08T19:10:02.350Z,81.98
2023-01-08T19:12:39.259Z,82.10
2023-01-08T19:15:13.825Z,82.63
2023-01-08T19:17:47.221Z,82.23
2023-01-08T19:20:20.769Z,83.05
2023-01-08T19:22:54.389Z,83.47
2023-01-08T19:25:28.255Z,83.21
2023-01-08T19:28:03.267Z,83.00
2023-01-08T19:30:38.123Z,83.74
2023-01-08T19:33:13.247Z,83.97
2023-01-08T19:35:46.410Z,83.58
2023-01-08T19:38:20.068Z,83.48
2023-01-08T19:40:53.285Z,82.89
2023-01-08T19:43:42.325Z,83.36
2023-01-08T19:46:18.378Z,82.73
2023-01-08T19:48:52.066Z,83.04
2023-01-08T19:51:26.123Z,83.46
2023-01-08T19:54:01.159Z,83.14
2023-01-08T19:56:35.460Z,83.03
2023-01-08T19:59:11.414Z,83.65
2023-01-08T20:01:45.724Z,83.62
2023-01-08T20:04:20.263Z,83.21
2023-01-08T20:06:55.275Z,84.30
2023-01-08T20:09:30.257Z,84.68
2023-01-08T20:12:07.105Z,84.10
2023-01-08T20:14:43.185Z,83.64
2023-01-08T20:17:19.707Z,83.95
2023-01-08T20:19:55.606Z,83.83
2023-01-08T20:22:31.500Z,83.97
2023-01-08T20:25:07.613Z,84.47
2023-01-08T20:27:41.469Z,84.39
2023-01-08T20:30:16.561Z,84.38
2023-01-08T20:35:24.389Z,84.11
2023-01-08T20:37:57.687Z,85.09
2023-01-08T20:40:31.221Z,83.85
2023-01-08T20:43:04.938Z,84.29
2023-01-08T20:45:42.671Z,83.37
2023-01-08T20:48:16.047Z,83.93
2023-01-08T20:50:55.941Z,83.88
2023-01-08T20:53:30.360Z,84.02
2023-01-08T20:56:05.828Z,83.38
2023-01-08T20:58:41.005Z,83.79
2023-01-08T21:01:18.145Z,84.25
2023-01-08T21:03:55.291Z,83.75
2023-01-08T21:06:30.527Z,83.74
2023-01-08T21:09:07.703Z,83.14
2023-01-08T21:11:42.367Z,84.37
2023-01-08T21:14:16.425Z,84.10
2023-01-08T21:16:51.382Z,83.45
2023-01-08T21:19:24.522Z,83.59
2023-01-08T21:21:57.829Z,83.69
2023-01-08T21:24:31.117Z,83.97
2023-01-08T21:27:04.541Z,85.62
2023-01-08T21:29:38.729Z,84.53
2023-01-08T21:32:14.139Z,85.18
2023-01-08T21:34:47.431Z,85.51
2023-01-08T21:37:20.940Z,84.13
2023-01-08T21:39:54.259Z,84.86
2023-01-08T21:42:44.957Z,84.45
2023-01-08T21:45:27.735Z,84.41
2023-01-08T21:48:02.715Z,84.83
2023-01-08T21:50:36.411Z,84.71
2023-01-08T21:53:27.640Z,84.27
2023-01-08T21:56:00.992Z,84.99
2023-01-08T21:58:35.014Z,84.29
2023-01-08T22:01:09.899Z,85.05
2023-01-08T22:03:58.260Z,84.46
2023-01-08T22:06:31.408Z,85.60
2023-01-08T22:09:05.305Z,84.55
2023-01-08T22:11:39.089Z,84.43
2023-01-08T22:14:13.057Z,84.76
2023-01-08T22:16:46.749Z,84.73
2023-01-08T22:19:21.252Z,84.62
2023-01-08T22:21:55.997Z,84.64
2023-01-08T22:24:29.488Z,84.04
2023-01-08T22:27:03.073Z,83.88
2023-01-08T22:29:36.664Z,85.00
2023-01-08T22:32:09.999Z,85.35
2023-01-08T22:34:44.556Z,84.94
2023-01-08T22:37:21.604Z,84.35
2023-01-08T22:39:55.280Z,84.54
2023-01-08T22:42:28.911Z,84.44
2023-01-08T22:45:02.132Z,85.11
2023-01-08T22:47:35.533Z,84.82
2023-01-08T22:50:11.584Z,84.71
2023-01-08T22:52:45.004Z,84.52
2023-01-08T22:55:19.075Z,84.93
2023-01-08T22:57:53.271Z,84.43
2023-01-08T23:00:26.888Z,84.61
2023-01-08T23:03:00.278Z,84.15
2023-01-08T23:05:35.043Z,84.46
2023-01-08T23:08:09.001Z,84.10
2023-01-08T23:10:42.607Z,83.84
2023-01-08T23:13:16.923Z,83.53
2023-01-08T23:15:50.484Z,83.54
2023-01-08T23:18:23.777Z,83.51
2023-01-08T23:21:03.986Z,83.83
2023-01-08T23:23:37.992Z,84.35
2023-01-08T23:26:14.240Z,84.34
2023-01-08T23:28:48.116Z,85.20
2023-01-08T23:31:23.973Z,84.63
2023-01-08T23:33:58.182Z,84.46
2023-01-08T23:36:33.345Z,84.93
2023-01-08T23:39:06.987Z,84.24
2023-01-08T23:41:40.405Z,85.12
2023-01-08T23:44:15.929Z,85.51
2023-01-08T23:46:49.185Z,85.84
2023-01-08T23:49:22.505Z,86.08
2023-01-08T23:51:57.160Z,86.37
2023-01-08T23:54:30.869Z,85.66
2023-01-08T23:57:06.207Z,85.17
2023-01-08T23:59:39.469Z,84.61
